KSYI/SYI METAR and TAF weather

Enter ICAO airport designator
Station Type Date Time Source
KSYI METAR 2019/08/23 15:15 UTC NOAA

KSYI 231515Z AUTO 00000KT 10SM OVC016 27/24 A3006 RMK A01


Station Type Date Time Source
KSYI Decoded METAR 2019/08/23 15:15 UTC NOAA

Station name not available
Aug 23, 2019 - 11:15 AM EDT / 2019.08.23 1515 UTC
Wind: Calm:0
Visibility: 10 mile(s):0
Sky conditions: overcast
Temperature: 80 F (27 C)
Dew Point: 75 F (24 C)
Relative Humidity: 83%
Pressure (altimeter): 30.06 in. Hg (1017 hPa)
ob: KSYI 231515Z AUTO 00000KT 10SM OVC016 27/24 A3006 RMK A01
cycle: 15

Station Type Date Time Source
KSYI TAF UTC NOAA

Error!

Example: see airport list